createdAt,value
2023-02-10T00:01:42.085Z,11.55
2023-02-10T00:04:12.087Z,11.27
2023-02-10T00:06:39.011Z,10.88
2023-02-10T00:09:12.282Z,12.27
2023-02-10T00:11:57.206Z,11.23
2023-02-10T00:14:24.553Z,11.73
2023-02-10T00:16:55.770Z,11.55
2023-02-10T00:19:29.182Z,10.85
2023-02-10T00:21:56.096Z,12.00
2023-02-10T00:24:23.490Z,12.77
2023-02-10T00:26:51.155Z,11.00
2023-02-10T00:29:20.955Z,11.18
2023-02-10T00:31:50.632Z,12.30
2023-02-10T00:34:18.527Z,11.02
2023-02-10T00:36:45.856Z,12.35
2023-02-10T00:39:18.348Z,11.40
2023-02-10T00:41:47.800Z,11.93
2023-02-10T00:44:14.650Z,11.15
2023-02-10T00:46:44.061Z,12.23
2023-02-10T00:49:12.420Z,10.85
2023-02-10T00:51:39.382Z,11.18
2023-02-10T00:54:06.275Z,10.73
2023-02-10T00:56:33.151Z,11.23
2023-02-10T00:59:00.157Z,11.73
2023-02-10T01:01:29.528Z,10.25
2023-02-10T01:03:56.452Z,10.90
2023-02-10T01:06:23.370Z,10.07
2023-02-10T01:08:50.301Z,11.90
2023-02-10T01:11:18.062Z,9.55
2023-02-10T01:13:45.065Z,11.02
2023-02-10T01:16:17.801Z,10.57
2023-02-10T01:18:46.047Z,10.30
2023-02-10T01:21:17.427Z,10.90
2023-02-10T01:23:45.604Z,11.00
2023-02-10T01:26:13.564Z,10.48
2023-02-10T01:28:41.935Z,10.30
2023-02-10T01:31:15.077Z,9.98
2023-02-10T01:33:42.581Z,10.15
2023-02-10T01:36:18.863Z,10.32
2023-02-10T01:38:48.481Z,10.48
2023-02-10T01:41:22.517Z,11.10
2023-02-10T01:44:04.760Z,10.23
2023-02-10T01:46:34.435Z,11.00
2023-02-10T01:49:15.202Z,11.30
2023-02-10T01:51:53.125Z,10.25
2023-02-10T01:54:31.818Z,9.63
2023-02-10T01:57:00.261Z,10.07
2023-02-10T01:59:33.173Z,9.80
2023-02-10T02:02:07.648Z,9.95
2023-02-10T02:04:46.502Z,10.05
2023-02-10T02:07:13.376Z,11.02
2023-02-10T02:09:40.816Z,10.38
2023-02-10T02:12:18.881Z,11.20
2023-02-10T02:14:57.173Z,10.95
2023-02-10T02:17:47.007Z,10.23
2023-02-10T02:20:58.734Z,10.13
2023-02-10T02:23:47.455Z,9.10
2023-02-10T02:26:22.488Z,10.80
2023-02-10T02:29:14.016Z,9.35
2023-02-10T02:32:22.022Z,10.93
2023-02-10T02:35:03.516Z,10.20
2023-02-10T02:37:34.308Z,10.65
2023-02-10T02:40:04.341Z,9.80
2023-02-10T02:42:33.784Z,11.02
2023-02-10T02:45:21.171Z,10.60
2023-02-10T02:48:09.004Z,11.05
2023-02-10T02:50:47.863Z,11.20
2023-02-10T02:53:26.510Z,11.18
2023-02-10T02:56:17.057Z,10.35
2023-02-10T02:58:57.498Z,11.43
2023-02-10T03:01:57.013Z,11.00
2023-02-10T03:04:31.349Z,10.90
2023-02-10T03:06:58.356Z,11.05
2023-02-10T03:09:30.837Z,10.57
2023-02-10T03:11:58.393Z,11.07
2023-02-10T03:14:25.602Z,11.00
2023-02-10T03:16:52.536Z,10.60
2023-02-10T03:19:19.540Z,10.50
2023-02-10T03:21:48.049Z,9.65
2023-02-10T03:24:15.440Z,10.65
2023-02-10T03:26:42.303Z,9.95
2023-02-10T03:29:18.400Z,10.48
2023-02-10T03:31:45.442Z,10.65
2023-02-10T03:34:12.393Z,10.40
2023-02-10T03:36:41.888Z,10.27
2023-02-10T03:39:12.331Z,10.43
2023-02-10T03:41:41.270Z,10.50
2023-02-10T03:44:10.700Z,9.70
2023-02-10T03:46:37.916Z,10.35
2023-02-10T03:49:09.554Z,9.18
2023-02-10T03:51:36.510Z,10.32
2023-02-10T03:54:03.633Z,11.55
2023-02-10T03:56:32.792Z,10.45
2023-02-10T03:59:04.926Z,10.80
2023-02-10T04:01:32.762Z,10.90
2023-02-10T04:03:59.993Z,10.23
2023-02-10T04:06:27.213Z,10.88
2023-02-10T04:08:56.285Z,10.82
2023-02-10T04:11:23.261Z,10.32
2023-02-10T04:13:50.116Z,11.00
2023-02-10T04:16:18.273Z,11.73
2023-02-10T04:18:45.206Z,10.85
2023-02-10T04:21:13.764Z,10.50
2023-02-10T04:23:45.640Z,11.07
2023-02-10T04:26:12.679Z,11.15
2023-02-10T04:28:39.609Z,10.32
2023-02-10T04:31:06.675Z,10.32
2023-02-10T04:33:33.696Z,10.07
2023-02-10T04:36:03.800Z,9.77
2023-02-10T04:38:33.198Z,10.25
2023-02-10T04:41:00.067Z,10.80
2023-02-10T04:43:29.481Z,10.05
2023-02-10T04:45:58.602Z,9.27
2023-02-10T04:48:25.531Z,10.23
2023-02-10T04:50:53.300Z,9.73
2023-02-10T04:53:22.338Z,9.85
2023-02-10T04:55:49.511Z,10.60
2023-02-10T04:58:16.532Z,9.50
2023-02-10T05:00:43.434Z,10.23
2023-02-10T05:03:12.336Z,10.73
2023-02-10T05:05:41.473Z,10.57
2023-02-10T05:08:08.352Z,9.52
2023-02-10T05:10:35.316Z,10.93
2023-02-10T05:13:04.646Z,11.05
2023-02-10T05:15:33.748Z,10.52
2023-02-10T05:18:00.576Z,10.68
2023-02-10T05:20:27.456Z,10.82
2023-02-10T05:22:54.318Z,10.75
2023-02-10T05:25:23.226Z,10.02
2023-02-10T05:27:50.072Z,11.05
2023-02-10T05:30:16.947Z,10.73
2023-02-10T05:32:46.478Z,11.48
2023-02-10T05:35:17.823Z,10.77
2023-02-10T05:37:47.186Z,11.10
2023-02-10T05:40:14.292Z,11.63
2023-02-10T05:42:45.985Z,11.50
2023-02-10T05:45:12.879Z,10.57
2023-02-10T05:47:42.312Z,11.68
2023-02-10T05:50:09.502Z,10.98
2023-02-10T05:52:38.711Z,11.50
2023-02-10T05:55:06.668Z,10.63
2023-02-10T05:57:33.696Z,11.93
2023-02-10T06:00:09.077Z,11.45
2023-02-10T06:02:36.032Z,11.65
2023-02-10T06:05:02.916Z,11.30
2023-02-10T06:07:31.864Z,11.02
2023-02-10T06:10:05.803Z,11.93
2023-02-10T06:12:35.285Z,11.82
2023-02-10T06:15:02.169Z,11.30
2023-02-10T06:17:29.123Z,12.38
2023-02-10T06:19:56.001Z,11.25
2023-02-10T06:22:22.804Z,12.15
2023-02-10T06:24:49.660Z,11.45
2023-02-10T06:27:19.063Z,13.27
2023-02-10T06:29:45.923Z,11.50
2023-02-10T06:32:12.801Z,11.32
2023-02-10T06:34:39.852Z,10.93
2023-02-10T06:37:08.790Z,11.52
2023-02-10T06:39:35.654Z,10.70
2023-02-10T06:42:02.848Z,11.60
2023-02-10T06:44:31.898Z,11.43
2023-02-10T06:47:00.994Z,12.52
2023-02-10T06:49:30.392Z,11.55
2023-02-10T06:51:57.307Z,12.48
2023-02-10T06:54:26.490Z,13.15
2023-02-10T06:56:55.700Z,13.25
2023-02-10T06:59:27.299Z,11.82
2023-02-10T07:02:01.112Z,13.55
2023-02-10T07:04:32.225Z,11.75
2023-02-10T07:06:59.770Z,12.65
2023-02-10T07:09:26.858Z,11.70
2023-02-10T07:11:53.768Z,11.38
2023-02-10T07:14:20.768Z,11.23
2023-02-10T07:16:48.461Z,12.52
2023-02-10T07:19:17.517Z,11.90
2023-02-10T07:21:46.635Z,12.15
2023-02-10T07:24:15.984Z,12.05
2023-02-10T07:26:42.862Z,11.18
2023-02-10T07:29:15.192Z,11.52
2023-02-10T07:31:42.237Z,11.10
2023-02-10T07:34:09.297Z,10.35
2023-02-10T07:36:38.560Z,11.15
2023-02-10T07:39:05.483Z,10.73
2023-02-10T07:41:32.755Z,11.63
2023-02-10T07:43:59.628Z,11.00
2023-02-10T07:46:26.538Z,12.43
2023-02-10T07:48:55.993Z,12.13
2023-02-10T07:51:22.923Z,12.10
2023-02-10T07:53:51.923Z,11.70
2023-02-10T07:56:20.835Z,13.32
2023-02-10T07:58:47.682Z,12.38
2023-02-10T08:01:17.522Z,12.82
2023-02-10T08:03:47.018Z,12.13
2023-02-10T08:06:20.721Z,12.73
2023-02-10T08:08:50.858Z,11.57
2023-02-10T08:11:20.941Z,11.60
2023-02-10T08:13:47.909Z,12.45
2023-02-10T08:16:17.000Z,11.77
2023-02-10T08:18:44.255Z,11.02
2023-02-10T08:21:11.229Z,11.30
2023-02-10T08:23:38.680Z,11.18
2023-02-10T08:26:11.741Z,10.90
2023-02-10T08:28:40.552Z,10.02
2023-02-10T08:31:10.444Z,11.77
2023-02-10T08:33:46.299Z,11.25
2023-02-10T08:36:21.569Z,12.52
2023-02-10T08:38:52.315Z,12.43
2023-02-10T08:41:19.782Z,12.85
2023-02-10T08:43:48.927Z,13.50
2023-02-10T08:46:18.879Z,14.40
2023-02-10T08:48:48.043Z,14.27
2023-02-10T08:51:16.902Z,14.48
2023-02-10T08:53:46.702Z,15.15
2023-02-10T08:56:21.141Z,15.40
2023-02-10T08:58:48.051Z,15.68
2023-02-10T09:01:25.875Z,15.40
2023-02-10T09:03:59.205Z,15.48
2023-02-10T09:06:31.941Z,15.55
2023-02-10T09:08:59.962Z,16.25
2023-02-10T09:11:27.522Z,17.33
2023-02-10T09:13:58.487Z,16.52
2023-02-10T09:16:26.033Z,17.77
2023-02-10T09:18:53.147Z,17.00
2023-02-10T09:21:20.234Z,17.67
2023-02-10T09:23:47.111Z,18.20
2023-02-10T09:26:14.018Z,16.83
2023-02-10T09:28:43.196Z,16.50
2023-02-10T09:31:13.006Z,15.43
2023-02-10T09:33:40.251Z,15.60
2023-02-10T09:36:10.056Z,14.85
2023-02-10T09:38:36.911Z,15.27
2023-02-10T09:41:34.802Z,14.95
2023-02-10T09:44:17.962Z,13.90
2023-02-10T09:46:59.260Z,13.48
2023-02-10T09:49:43.015Z,14.07
2023-02-10T09:52:31.213Z,14.60
2023-02-10T09:54:58.833Z,14.30
2023-02-10T09:57:41.987Z,15.05
2023-02-10T10:00:40.836Z,14.35
2023-02-10T10:03:18.941Z,14.45
2023-02-10T10:05:57.614Z,13.98
2023-02-10T10:09:02.342Z,14.00
2023-02-10T10:11:39.938Z,13.73
2023-02-10T10:14:31.221Z,13.65
2023-02-10T10:17:42.938Z,14.35
2023-02-10T10:20:44.545Z,12.73
2023-02-10T10:23:52.349Z,13.43
2023-02-10T10:26:42.944Z,13.27
2023-02-10T10:29:31.598Z,14.23
2023-02-10T10:32:26.279Z,13.88
2023-02-10T10:34:55.578Z,13.70
2023-02-10T10:37:29.452Z,14.50
2023-02-10T10:40:06.451Z,14.68
2023-02-10T10:42:47.500Z,14.25
2023-02-10T10:45:21.431Z,13.80
2023-02-10T10:47:57.054Z,13.57
2023-02-10T10:50:24.979Z,14.55
2023-02-10T10:52:57.478Z,13.38
2023-02-10T10:55:42.582Z,13.07
2023-02-10T10:58:23.386Z,13.32
2023-02-10T11:00:58.418Z,14.50
2023-02-10T11:03:26.269Z,12.23
2023-02-10T11:06:12.280Z,12.57
2023-02-10T11:08:55.995Z,10.65
2023-02-10T11:11:41.847Z,11.18
2023-02-10T11:14:43.658Z,8.82
2023-02-10T11:17:42.277Z,7.93
2023-02-10T11:20:12.237Z,9.10
2023-02-10T11:22:43.734Z,10.02
2023-02-10T11:25:34.593Z,10.30
2023-02-10T11:28:03.984Z,9.97
2023-02-10T11:30:39.321Z,11.00
2023-02-10T11:33:22.349Z,10.10
2023-02-10T11:36:13.323Z,10.45
2023-02-10T11:38:44.250Z,7.90
2023-02-10T11:41:11.773Z,8.40
2023-02-10T11:43:43.917Z,9.50
2023-02-10T11:46:31.079Z,9.23
2023-02-10T11:49:06.268Z,10.82
2023-02-10T11:51:33.279Z,10.38
2023-02-10T11:54:00.728Z,10.20
2023-02-10T11:57:02.522Z,10.15
2023-02-10T12:00:12.100Z,8.25
2023-02-10T12:03:26.763Z,7.53
2023-02-10T12:06:38.239Z,6.57
2023-02-10T12:09:23.636Z,7.10
2023-02-10T12:11:58.604Z,7.88
2023-02-10T12:14:50.746Z,7.40
2023-02-10T12:17:30.975Z,6.63
2023-02-10T12:20:28.225Z,8.45
2023-02-10T12:23:36.328Z,7.35
2023-02-10T12:26:09.236Z,7.40
2023-02-10T12:28:51.080Z,7.97
2023-02-10T12:31:46.902Z,7.80
2023-02-10T12:34:28.748Z,7.78
2023-02-10T12:40:12.008Z,6.25
2023-02-10T12:42:49.072Z,7.57
2023-02-10T12:45:40.244Z,7.05
2023-02-10T12:48:43.529Z,7.72
2023-02-10T12:51:23.392Z,7.40
2023-02-10T12:54:12.315Z,8.15
2023-02-10T12:56:49.862Z,7.78
2023-02-10T12:59:49.716Z,9.13
2023-02-10T13:02:29.501Z,8.02
2023-02-10T13:05:03.855Z,8.20
2023-02-10T13:07:43.453Z,7.25
2023-02-10T13:10:34.754Z,7.28
2023-02-10T13:13:28.331Z,7.28
2023-02-10T13:16:14.316Z,7.57
2023-02-10T13:18:58.598Z,8.02
2023-02-10T13:21:32.110Z,8.20
2023-02-10T13:24:19.220Z,8.32
2023-02-10T13:27:06.842Z,8.13
2023-02-10T13:29:57.605Z,7.82
2023-02-10T13:33:03.149Z,6.88
2023-02-10T13:35:32.939Z,7.03
2023-02-10T13:38:09.798Z,7.28
2023-02-10T13:40:49.596Z,7.32
2023-02-10T13:43:32.382Z,7.47
2023-02-10T13:46:02.990Z,7.38
2023-02-10T13:48:35.336Z,8.45
2023-02-10T13:51:08.463Z,7.18
2023-02-10T13:53:35.266Z,7.20
2023-02-10T13:56:20.322Z,6.88
2023-02-10T13:58:50.242Z,6.72
2023-02-10T14:01:37.292Z,7.05
2023-02-10T14:04:27.934Z,5.88
2023-02-10T14:06:57.424Z,6.72
2023-02-10T14:09:30.422Z,7.00
2023-02-10T14:12:01.838Z,7.25
2023-02-10T14:14:45.040Z,6.68
2023-02-10T14:17:31.284Z,6.80
2023-02-10T14:19:59.819Z,6.05
2023-02-10T14:22:38.846Z,7.15
2023-02-10T14:25:19.955Z,7.13
2023-02-10T14:27:57.320Z,6.97
2023-02-10T14:31:02.202Z,7.10
2023-02-10T14:33:35.674Z,7.53
2023-02-10T14:36:15.737Z,7.38
2023-02-10T14:38:47.327Z,7.32
2023-02-10T14:43:50.342Z,6.55
2023-02-10T14:46:37.080Z,6.95
2023-02-10T14:49:11.145Z,7.50
2023-02-10T14:51:50.042Z,6.88
2023-02-10T14:54:22.690Z,7.63
2023-02-10T14:56:55.257Z,6.65
2023-02-10T14:59:29.525Z,6.97
2023-02-10T15:02:15.551Z,7.28
2023-02-10T15:04:51.934Z,7.22
2023-02-10T15:07:25.553Z,7.30
2023-02-10T15:09:54.093Z,6.93
2023-02-10T15:12:25.461Z,7.20
2023-02-10T15:15:16.288Z,6.90
2023-02-10T15:17:48.261Z,6.90
2023-02-10T15:20:27.190Z,6.95
2023-02-10T15:22:58.270Z,7.20
2023-02-10T15:25:34.408Z,9.07
2023-02-10T15:28:10.041Z,10.07
2023-02-10T15:30:43.195Z,9.85
2023-02-10T15:33:26.066Z,10.82
2023-02-10T15:36:24.372Z,10.95
2023-02-10T15:38:52.530Z,12.15
2023-02-10T15:41:40.525Z,12.25
2023-02-10T15:44:19.496Z,11.48
2023-02-10T15:47:13.849Z,10.80
2023-02-10T15:49:46.728Z,12.68
2023-02-10T15:52:31.925Z,13.68
2023-02-10T15:55:12.566Z,12.15
2023-02-10T15:57:42.514Z,10.85
2023-02-10T16:00:24.007Z,10.00
2023-02-10T16:02:51.523Z,10.65
2023-02-10T16:05:21.181Z,12.88
2023-02-10T16:07:48.553Z,11.85
2023-02-10T16:10:26.588Z,11.75
2023-02-10T16:12:55.976Z,12.52
2023-02-10T16:15:25.780Z,11.52
2023-02-10T16:17:57.422Z,11.75
2023-02-10T16:22:54.151Z,12.73
2023-02-10T16:25:25.711Z,13.38
2023-02-10T16:30:29.211Z,11.88
2023-02-10T16:32:57.069Z,13.10
2023-02-10T16:35:27.501Z,12.98
2023-02-10T16:37:55.834Z,13.73
2023-02-10T16:40:27.735Z,13.82
2023-02-10T16:42:55.032Z,15.88
2023-02-10T16:45:30.949Z,17.08
2023-02-10T16:48:02.461Z,17.45
2023-02-10T16:53:04.785Z,12.85
2023-02-10T16:55:32.222Z,15.73
2023-02-10T16:58:01.910Z,16.17
2023-02-10T17:00:29.312Z,14.38
2023-02-10T17:02:56.490Z,13.75
2023-02-10T17:05:23.725Z,14.40
2023-02-10T17:07:53.323Z,14.95
2023-02-10T17:10:30.193Z,15.95
2023-02-10T17:12:57.617Z,15.45
2023-02-10T17:15:25.291Z,15.05
2023-02-10T17:17:52.283Z,16.35
2023-02-10T17:20:34.343Z,15.27
2023-02-10T17:23:03.468Z,15.23
2023-02-10T17:25:35.189Z,17.42
2023-02-10T17:28:10.161Z,16.42
2023-02-10T17:30:41.132Z,17.77
2023-02-10T17:33:25.500Z,15.75
2023-02-10T17:35:52.359Z,14.30
2023-02-10T17:38:38.194Z,14.23
2023-02-10T17:41:07.975Z,13.88
2023-02-10T17:43:35.908Z,14.05
2023-02-10T17:46:05.865Z,13.52
2023-02-10T17:48:32.741Z,13.20
2023-02-10T17:51:05.925Z,13.73
2023-02-10T17:53:35.679Z,14.35
2023-02-10T17:56:03.790Z,14.00
2023-02-10T17:58:32.164Z,14.55
2023-02-10T18:00:59.872Z,14.50
2023-02-10T18:03:29.618Z,13.80
2023-02-10T18:06:00.879Z,13.38
2023-02-10T18:08:30.978Z,13.32
2023-02-10T18:10:57.902Z,14.68
2023-02-10T18:13:24.885Z,15.63
2023-02-10T18:15:54.748Z,17.83
2023-02-10T18:18:21.715Z,14.98
2023-02-10T18:20:48.641Z,15.65
2023-02-10T18:23:15.548Z,15.93
2023-02-10T18:25:44.651Z,16.48
2023-02-10T18:28:14.350Z,15.23
2023-02-10T18:30:47.896Z,15.90
2023-02-10T18:33:15.376Z,16.40
2023-02-10T18:35:43.403Z,17.27
2023-02-10T18:38:10.719Z,17.73
2023-02-10T18:40:44.297Z,17.70
2023-02-10T18:43:12.927Z,16.58
2023-02-10T18:45:45.206Z,18.55
2023-02-10T18:48:13.238Z,18.75
2023-02-10T18:50:40.927Z,17.02
2023-02-10T18:53:07.946Z,16.85
2023-02-10T18:55:38.647Z,17.13
2023-02-10T18:58:05.695Z,16.63
2023-02-10T19:00:32.676Z,16.55
2023-02-10T19:03:01.891Z,16.33
2023-02-10T19:05:31.598Z,16.60
2023-02-10T19:07:59.639Z,18.40
2023-02-10T19:10:29.157Z,17.95
2023-02-10T19:12:56.214Z,16.60
2023-02-10T19:15:23.412Z,15.02
2023-02-10T19:17:50.330Z,14.38
2023-02-10T19:20:17.395Z,14.27
2023-02-10T19:22:44.668Z,14.52
2023-02-10T19:25:15.259Z,14.20
2023-02-10T19:27:42.097Z,14.60
2023-02-10T19:30:09.986Z,15.43
2023-02-10T19:32:36.879Z,15.80
2023-02-10T19:35:04.023Z,15.63
2023-02-10T19:37:37.276Z,15.07
2023-02-10T19:40:08.762Z,15.25
2023-02-10T19:42:35.815Z,14.25
2023-02-10T19:45:02.774Z,14.57
2023-02-10T19:47:34.348Z,15.80
2023-02-10T19:50:01.314Z,14.35
2023-02-10T19:52:28.231Z,14.45
2023-02-10T19:54:57.676Z,14.35
2023-02-10T19:57:29.132Z,15.75
2023-02-10T19:59:55.990Z,15.27
2023-02-10T20:02:22.833Z,15.13
2023-02-10T20:04:52.889Z,14.52
2023-02-10T20:07:20.751Z,14.25
2023-02-10T20:09:48.495Z,15.65
2023-02-10T20:12:15.394Z,16.13
2023-02-10T20:14:42.272Z,14.85
2023-02-10T20:17:09.272Z,15.23
2023-02-10T20:19:36.233Z,16.08
2023-02-10T20:22:05.621Z,16.42
2023-02-10T20:24:32.544Z,16.02
2023-02-10T20:26:59.407Z,15.40
2023-02-10T20:29:28.540Z,16.52
2023-02-10T20:31:57.715Z,15.30
2023-02-10T20:34:29.538Z,16.48
2023-02-10T20:36:58.736Z,15.40
2023-02-10T20:39:25.738Z,15.00
2023-02-10T20:41:52.707Z,15.45
2023-02-10T20:44:19.847Z,15.90
2023-02-10T20:46:49.024Z,15.30
2023-02-10T20:49:15.928Z,14.90
2023-02-10T20:51:42.814Z,15.40
2023-02-10T20:54:09.745Z,14.30
2023-02-10T20:56:36.609Z,14.93
2023-02-10T20:59:05.150Z,15.23
2023-02-10T21:01:36.866Z,15.15
2023-02-10T21:04:04.064Z,16.95
2023-02-10T21:06:31.006Z,17.05
2023-02-10T21:08:58.387Z,17.15
2023-02-10T21:11:29.112Z,16.25
2023-02-10T21:13:56.337Z,16.23
2023-02-10T21:16:25.795Z,16.33
2023-02-10T21:18:53.460Z,16.02
2023-02-10T21:21:21.317Z,17.40
2023-02-10T21:23:52.787Z,15.88
2023-02-10T21:26:23.981Z,15.40
2023-02-10T21:28:53.970Z,16.02
2023-02-10T21:31:25.098Z,17.58
2023-02-10T21:33:52.748Z,15.88
2023-02-10T21:36:28.914Z,17.20
2023-02-10T21:38:58.953Z,15.50
2023-02-10T21:41:45.501Z,15.93
2023-02-10T21:44:20.297Z,15.60
2023-02-10T21:46:54.620Z,15.65
2023-02-10T21:49:23.565Z,16.33
2023-02-10T21:51:52.591Z,15.73
2023-02-10T21:54:22.507Z,15.50
2023-02-10T21:56:49.811Z,13.60
2023-02-10T21:59:16.794Z,13.32
2023-02-10T22:01:44.315Z,11.80
2023-02-10T22:04:14.137Z,12.57
2023-02-10T22:06:44.910Z,12.88
2023-02-10T22:09:18.631Z,12.10
2023-02-10T22:11:46.191Z,11.63
2023-02-10T22:14:17.781Z,12.20
2023-02-10T22:19:15.055Z,10.57
2023-02-10T22:21:41.939Z,11.82
2023-02-10T22:24:11.909Z,12.52
2023-02-10T22:26:38.984Z,14.38
2023-02-10T22:29:06.012Z,13.63
2023-02-10T22:31:34.069Z,14.88
2023-02-10T22:34:05.608Z,14.65
2023-02-10T22:39:05.507Z,11.35
2023-02-10T22:41:33.643Z,13.65
2023-02-10T22:44:05.172Z,13.88
2023-02-10T22:48:59.317Z,12.57
2023-02-10T22:51:31.234Z,12.68
2023-02-10T22:54:07.985Z,14.15
2023-02-10T22:56:38.882Z,13.02
2023-02-10T22:59:09.595Z,12.88
2023-02-10T23:01:40.190Z,16.97
2023-02-10T23:04:12.021Z,18.87
2023-02-10T23:06:41.598Z,17.10
2023-02-10T23:09:10.993Z,17.88
2023-02-10T23:11:43.213Z,15.70
2023-02-10T23:14:10.407Z,14.20
2023-02-10T23:16:37.494Z,13.20
2023-02-10T23:19:05.072Z,14.30
2023-02-10T23:21:34.234Z,12.35
2023-02-10T23:24:03.456Z,11.73
2023-02-10T23:26:33.422Z,12.20
2023-02-10T23:29:02.918Z,13.00
2023-02-10T23:31:30.383Z,12.77
2023-02-10T23:33:57.732Z,13.38
2023-02-10T23:36:25.390Z,14.30
2023-02-10T23:38:53.121Z,15.05
2023-02-10T23:41:21.019Z,14.30
2023-02-10T23:43:48.011Z,12.95
2023-02-10T23:46:18.104Z,12.68
2023-02-10T23:48:47.483Z,13.23
2023-02-10T23:51:18.042Z,13.40
2023-02-10T23:53:45.408Z,13.03
2023-02-10T23:56:14.533Z,12.32
2023-02-10T23:58:41.752Z,13.25
